Local and Regional Airport Weather



KPVE - Beech River Regional Airport
Distance from station: NW 4mi, 6km
Updated: Mon, May-27-2019 8:15am CDT
Clear
Clear
 Wind from calm
Wind: Calm
Temperature: 77°F , 25°C
Dew Point: 70°F , 21°C
Humidity: 79%
Barometer: 30.06 inHg , 1017.9 hPa
Clouds: Clear
Visibility: 10 miles , 16 km
2019/05/27 13:15 KPVE 271315Z AUTO 00000KT 10SM CLR 25/21 A3006 RMK A01
KSNH - Savannah Hardin Co. Airport
Distance from station: S 34mi, 54km
Updated: Mon, May-27-2019 8:15am CDT
Clear
Clear
 Wind from S
Wind: S 3 mph , 6 km/h
Temperature: 77°F , 25°C
Dew Point: 72°F , 22°C
Humidity: 83%
Barometer: 30.07 inHg , 1018.3 hPa
Clouds: Clear
Visibility: 10 miles , 16 km
2019/05/27 13:15 KSNH 271315Z AUTO 17003KT 10SM CLR 25/22 A3007 RMK A01
 
KMKL - McKellar-Sipes Regional Airport
Distance from station: W 44mi, 72km
Updated: Mon, May-27-2019 7:53am CDT
Clear
Clear
 Wind from SW
Wind: SW 7 mph , 11 km/h
Temperature: 79°F , 26°C
Dew Point: 70°F , 21°C
Humidity: 74%
Barometer: 30.06 inHg , 1017.9 hPa
Clouds: Clear
Visibility: 10 miles , 16 km
2019/05/27 12:53 KMKL 271253Z 22006KT 10SM CLR 26/21 A3006 RMK AO2 SLP173 T02610211 $
KMSL - NW Alabama Regional Airport
Distance from station: SE 78mi, 126km
Updated: Mon, May-27-2019 7:53am CDT
Clear
Clear
 Wind from calm
Wind: Calm
Temperature: 77°F , 25°C
Dew Point: 70°F , 21°C
Humidity: 79%
Barometer: 30.09 inHg , 1019 hPa
Clouds: Clear
Visibility: 10 miles , 16 km
2019/05/27 12:53 KMSL 271253Z AUTO 00000KT 10SM CLR 25/21 A3009 RMK AO2 SLP183 T02500211
 
KBNA - Nashville International Airport
Distance from station: NE 97mi, 157km
Updated: Mon, May-27-2019 7:53am CDT
Partly cloudy
Partly cloudy
 Wind from S
Wind: S 3 mph , 6 km/h
Temperature: 79°F , 26°C
Dew Point: 64°F , 18°C
Humidity: 61%
Barometer: 30.07 inHg , 1018.3 hPa
Clouds: Partly cloudy
Visibility: 10 miles , 16 km
Cloud details: Few Clouds 20000 ft
Partly cloudy 25000 ft
2019/05/27 12:53 KBNA 271253Z 19003KT 10SM FEW200 SCT250 26/18 A3007 RMK AO2 SLP175 T02610178 $
KMEM - Memphis International Airport
Distance from station: W 108mi, 173km
Updated: Mon, May-27-2019 7:54am CDT
Partly cloudy
Partly cloudy
 Wind from SSW
Wind: SSW 5 mph , 7 km/h
Temperature: 81°F , 27°C
Heat Index: 85°F , 29°C
Dew Point: 72°F , 22°C
Humidity: 74%
Barometer: 30.05 inHg , 1017.6 hPa
Clouds: Partly cloudy
Visibility: 10 miles , 16 km
Cloud details: Partly cloudy 25000 ft
2019/05/27 12:54 KMEM 271254Z 20004KT 10SM SCT250 27/22 A3005 RMK AO2 SLP170 T02670217 $
 
KTYS - Knoxville McGhee Tyson Airport
Distance from station: E 234mi, 377km
Updated: Mon, May-27-2019 7:53am CDT
Partly cloudy
Partly cloudy
 Wind from SW
Wind: SW 5 mph , 7 km/h
Temperature: 75°F , 24°C
Dew Point: 63°F , 17°C
Humidity: 65%
Barometer: 30.10 inHg , 1019.3 hPa
Clouds: Partly cloudy
Visibility: 10 miles , 16 km
Cloud details: Few Clouds 20000 ft
Partly cloudy 25000 ft
2019/05/27 12:53 KTYS 271253Z 23004KT 10SM FEW200 SCT250 24/17 A3010 RMK AO2 SLP181 T02390172
KSTL - St. Louis International Airport
Distance from station: NW 247mi, 398km
Updated: Mon, May-27-2019 7:51am CDT
Overcast
Overcast
 Wind from SSE
Wind: SSE 12 mph , 19 km/h
Temperature: 75°F , 24°C
Dew Point: 66°F , 19°C
Humidity: 74%
Barometer: 29.98 inHg , 1015.2 hPa
Clouds: Overcast
Visibility: 10 miles , 16 km
Cloud details: Few Clouds 5500 ft
Few Clouds 8000 ft
Overcast 25000 ft
2019/05/27 12:51 KSTL 271251Z 15010KT 10SM FEW055 FEW080 OVC250 24/19 A2998 RMK AO2 SLP139 ACC N T02390189 $

Refresh Page for latest data.